Time;durP1;ratioP1;P1;durP2;ratioP2;P2;SDS_P1;SDS_P2;PMS_P1;PMS_P2;Temp;Humidity;BMP_temperature;BMP_pressure;BME280_temperature;BME280_humidity;BME280_pressure;Samples;Min_cycle;Max_cycle;Signal;HPM_P1;HPM_P2
2021/03/02 00:01:33;;;;;;;17.37;13.20;;;7.60;71.80;;;;;;5096312;28;20475;-74
2021/03/02 00:03:59;;;;;;;16.03;12.57;;;7.60;71.90;;;;;;5097164;28;20497;-74
2021/03/02 00:06:27;;;;;;;17.13;12.90;;;7.60;72.00;;;;;;5096712;28;21046;-74
2021/03/02 00:08:54;;;;;;;17.67;13.30;;;7.60;72.10;;;;;;5096990;28;20451;-74
2021/03/02 00:11:20;;;;;;;16.53;13.03;;;7.60;72.20;;;;;;5097113;28;20419;-74
2021/03/02 00:13:47;;;;;;;15.87;13.13;;;7.60;72.10;;;;;;5096970;28;20443;-74
2021/03/02 00:16:20;;;;;;;18.43;12.90;;;7.60;72.30;;;;;;5096896;28;20462;-74
2021/03/02 00:18:54;;;;;;;14.80;11.70;;;7.50;72.20;;;;;;5096958;28;20436;-74
2021/03/02 00:21:24;;;;;;;17.00;14.07;;;7.50;72.30;;;;;;5096878;28;20471;-74
2021/03/02 00:23:54;;;;;;;19.40;13.40;;;7.50;72.20;;;;;;5097014;28;20477;-74
2021/03/02 00:26:23;;;;;;;15.60;12.73;;;7.50;72.40;;;;;;5096376;28;20459;-75
2021/03/02 00:28:51;;;;;;;16.70;12.40;;;7.50;72.60;;;;;;5096896;28;20451;-74
2021/03/02 00:31:17;;;;;;;15.73;12.33;;;7.50;73.00;;;;;;5096584;28;20549;-74
2021/03/02 00:33:46;;;;;;;16.50;12.40;;;7.40;73.10;;;;;;5096583;28;20439;-75
2021/03/02 00:36:12;;;;;;;16.90;12.80;;;7.40;73.20;;;;;;5096524;28;20470;-74
2021/03/02 00:38:39;;;;;;;15.60;11.73;;;7.40;73.30;;;;;;5096565;28;20448;-74
2021/03/02 00:41:06;;;;;;;17.20;11.70;;;7.40;73.30;;;;;;5096153;28;21051;-74
2021/03/02 00:43:32;;;;;;;13.80;11.40;;;7.40;73.40;;;;;;5096428;28;20455;-74
2021/03/02 00:45:58;;;;;;;14.13;12.63;;;7.40;73.40;;;;;;5096352;28;20463;-74
2021/03/02 00:48:25;;;;;;;16.93;12.63;;;7.40;73.50;;;;;;5096267;28;20474;-75
2021/03/02 00:50:51;;;;;;;15.03;12.37;;;7.40;73.40;;;;;;5095983;28;20439;-75
2021/03/02 00:53:17;;;;;;;13.80;12.17;;;7.40;73.40;;;;;;5096122;28;20493;-75
2021/03/02 00:55:43;;;;;;;12.23;10.90;;;7.40;73.60;;;;;;5095757;28;21043;-74
2021/03/02 00:58:10;;;;;;;14.03;12.30;;;7.40;73.80;;;;;;5095882;28;20493;-74
2021/03/02 01:00:36;;;;;;;15.40;11.30;;;7.30;74.00;;;;;;5096058;28;20479;-74
2021/03/02 01:03:03;;;;;;;14.13;11.40;;;7.30;73.90;;;;;;5095969;28;20478;-74
2021/03/02 01:05:29;;;;;;;13.33;11.13;;;7.30;73.80;;;;;;5095782;28;20476;-74
2021/03/02 01:07:56;;;;;;;16.40;12.00;;;7.30;73.80;;;;;;5095891;28;20446;-74
2021/03/02 01:10:22;;;;;;;15.03;11.83;;;7.30;73.90;;;;;;5095311;28;21010;-74
2021/03/02 01:12:48;;;;;;;15.07;11.50;;;7.30;73.90;;;;;;5095660;28;20474;-74
2021/03/02 01:15:15;;;;;;;13.57;11.17;;;7.30;73.90;;;;;;5095761;28;20512;-74
2021/03/02 01:17:42;;;;;;;15.53;11.43;;;7.20;73.90;;;;;;5095817;28;20444;-74
2021/03/02 01:20:09;;;;;;;13.43;11.00;;;7.30;73.90;;;;;;5095630;28;20447;-74
2021/03/02 01:22:35;;;;;;;13.23;10.67;;;7.20;73.70;;;;;;5095765;28;20505;-74
2021/03/02 01:25:02;;;;;;;12.77;10.60;;;7.30;74.70;;;;;;5095673;28;20533;-74
2021/03/02 01:27:28;;;;;;;12.57;11.13;;;7.20;73.80;;;;;;5095445;28;20462;-74
2021/03/02 01:29:54;;;;;;;16.07;11.30;;;7.20;73.70;;;;;;5095426;28;20808;-74
2021/03/02 01:32:22;;;;;;;14.27;10.40;;;7.20;73.90;;;;;;5095321;28;20451;-74
2021/03/02 01:34:48;;;;;;;10.70;9.60;;;7.20;73.90;;;;;;5095164;28;20472;-74
2021/03/02 01:37:14;;;;;;;12.30;11.00;;;7.20;74.30;;;;;;5095302;28;20440;-74
2021/03/02 01:39:40;;;;;;;14.53;10.97;;;7.20;74.00;;;;;;5095691;28;20435;-74
2021/03/02 01:42:06;;;;;;;12.23;10.60;;;7.20;74.20;;;;;;5095188;28;20479;-74
2021/03/02 01:44:33;;;;;;;13.13;11.37;;;7.20;74.20;;;;;;5095076;28;20451;-74
2021/03/02 01:46:59;;;;;;;17.10;11.57;;;7.20;74.30;;;;;;5095109;28;20514;-74
2021/03/02 01:49:26;;;;;;;14.30;10.17;;;7.20;74.70;;;;;;5095109;28;20439;-74
2021/03/02 01:51:52;;;;;;;14.83;10.50;;;7.20;74.80;;;;;;5095164;28;20440;-74
2021/03/02 01:54:19;;;;;;;13.97;10.90;;;7.10;74.70;;;;;;5094960;28;20471;-74
2021/03/02 01:56:45;;;;;;;12.93;11.00;;;7.10;74.80;;;;;;5094866;28;20447;-75
2021/03/02 01:59:12;;;;;;;12.43;10.40;;;7.10;74.80;;;;;;5095225;28;20451;-74
2021/03/02 02:01:39;;;;;;;15.20;11.50;;;7.10;74.60;;;;;;5095970;28;20475;-74
2021/03/02 02:04:12;;;;;;;13.23;10.43;;;7.10;74.70;;;;;;5096655;28;20837;-74
2021/03/02 02:06:42;;;;;;;16.40;11.43;;;7.10;74.60;;;;;;5094738;28;20849;-75
2021/03/02 02:09:14;;;;;;;12.47;10.80;;;7.10;74.60;;;;;;5095115;28;20459;-74
2021/03/02 02:11:47;;;;;;;14.80;10.63;;;7.10;74.60;;;;;;5094789;28;20424;-74
2021/03/02 02:14:21;;;;;;;13.87;10.23;;;7.10;74.60;;;;;;5094437;28;20480;-74
2021/03/02 02:16:51;;;;;;;13.83;9.80;;;7.10;74.60;;;;;;5094501;28;21002;-74
2021/03/02 02:19:36;;;;;;;10.83;9.20;;;7.00;74.50;;;;;;5094677;28;20498;-75
2021/03/02 02:22:12;;;;;;;10.80;9.33;;;7.00;74.50;;;;;;5094270;28;20467;-74
2021/03/02 02:24:48;;;;;;;11.93;10.23;;;7.00;74.50;;;;;;5094227;28;20892;-74
2021/03/02 02:27:16;;;;;;;11.30;9.70;;;7.00;74.60;;;;;;5094512;28;20466;-74
2021/03/02 02:29:43;;;;;;;12.70;9.93;;;7.00;74.70;;;;;;5094031;28;20805;-74
2021/03/02 02:32:10;;;;;;;10.93;9.73;;;7.00;74.60;;;;;;5094601;28;20436;-74
2021/03/02 02:34:39;;;;;;;12.23;9.73;;;6.90;74.50;;;;;;5094399;28;20440;-74
2021/03/02 02:37:06;;;;;;;11.70;9.97;;;6.90;74.60;;;;;;5094100;28;20451;-74
2021/03/02 02:39:34;;;;;;;9.90;8.90;;;6.90;74.40;;;;;;5094111;28;20443;-74
2021/03/02 02:42:02;;;;;;;11.97;9.00;;;6.90;74.50;;;;;;5094176;28;20480;-74
2021/03/02 02:44:32;;;;;;;12.17;9.60;;;6.90;74.40;;;;;;5094007;28;20850;-74
2021/03/02 02:46:59;;;;;;;10.10;8.60;;;6.90;74.40;;;;;;5094026;28;20444;-74
2021/03/02 02:49:27;;;;;;;11.67;9.00;;;6.90;74.50;;;;;;5093945;28;20477;-74
2021/03/02 02:51:54;;;;;;;11.30;9.73;;;6.80;74.30;;;;;;5094213;28;20435;-74
2021/03/02 02:54:21;;;;;;;12.63;9.60;;;6.80;74.40;;;;;;5093880;28;20452;-74
2021/03/02 02:56:49;;;;;;;13.80;9.30;;;6.80;74.40;;;;;;5093496;28;20447;-74
2021/03/02 02:59:18;;;;;;;9.83;8.20;;;6.80;74.30;;;;;;5093773;28;20448;-74
2021/03/02 03:01:50;;;;;;;11.63;9.97;;;6.80;74.30;;;;;;5093706;28;20476;-74
2021/03/02 03:04:21;;;;;;;11.30;9.30;;;6.70;74.20;;;;;;5093769;28;20428;-74
2021/03/02 03:06:50;;;;;;;9.97;8.33;;;6.70;74.10;;;;;;5093446;28;20867;-74
2021/03/02 03:09:18;;;;;;;10.50;8.77;;;6.70;74.10;;;;;;5093468;28;20910;-74
2021/03/02 03:11:48;;;;;;;9.97;8.97;;;6.60;73.90;;;;;;5093321;28;20960;-74
2021/03/02 03:14:16;;;;;;;12.00;8.97;;;6.60;74.00;;;;;;5093683;28;20424;-74
2021/03/02 03:16:45;;;;;;;9.03;7.80;;;6.60;74.10;;;;;;5093471;28;20517;-74
2021/03/02 03:19:17;;;;;;;10.70;9.60;;;6.60;74.10;;;;;;5093591;28;20448;-74
2021/03/02 03:21:44;;;;;;;8.87;7.70;;;6.50;73.90;;;;;;5093550;28;20521;-74
2021/03/02 03:24:11;;;;;;;11.73;8.77;;;6.40;73.20;;;;;;5093577;28;20444;-74
2021/03/02 03:26:38;;;;;;;10.70;8.30;;;6.40;72.80;;;;;;5093226;28;21080;-74
2021/03/02 03:29:05;;;;;;;10.13;8.60;;;6.30;72.80;;;;;;5093249;28;20432;-74
2021/03/02 03:31:31;;;;;;;11.70;8.10;;;6.20;72.70;;;;;;5093402;28;20451;-74
2021/03/02 03:34:00;;;;;;;10.20;8.30;;;6.20;72.60;;;;;;5094334;28;20439;-74
2021/03/02 03:36:27;;;;;;;10.70;8.10;;;6.10;73.00;;;;;;5097461;28;20470;-74
2021/03/02 03:38:53;;;;;;;9.00;7.77;;;6.10;73.10;;;;;;5097255;28;20446;-74
2021/03/02 03:41:20;;;;;;;12.23;9.13;;;6.00;73.20;;;;;;5097375;28;20482;-74
2021/03/02 03:43:46;;;;;;;8.30;7.40;;;6.00;73.40;;;;;;5097405;28;20493;-74
2021/03/02 03:46:12;;;;;;;11.00;8.20;;;6.00;73.50;;;;;;5097266;28;20475;-74
2021/03/02 03:48:38;;;;;;;10.17;8.83;;;6.00;73.80;;;;;;5097308;28;20447;-74
2021/03/02 03:51:05;;;;;;;11.70;8.30;;;6.00;73.90;;;;;;5096951;28;20481;-74
2021/03/02 03:53:36;;;;;;;8.70;7.80;;;6.00;73.90;;;;;;5097229;28;20512;-74
2021/03/02 03:56:04;;;;;;;8.97;7.87;;;6.00;73.90;;;;;;5096825;28;20470;-74
2021/03/02 03:58:31;;;;;;;9.70;8.30;;;5.90;73.70;;;;;;5097129;28;20458;-74
2021/03/02 04:01:01;;;;;;;10.10;7.17;;;5.80;73.30;;;;;;5097069;28;20476;-74
2021/03/02 04:03:28;;;;;;;10.50;8.07;;;5.80;73.20;;;;;;5096684;28;20477;-74
2021/03/02 04:05:58;;;;;;;8.37;6.63;;;5.70;72.90;;;;;;5096647;28;20471;-74
2021/03/02 04:08:26;;;;;;;11.83;8.23;;;5.60;72.70;;;;;;5096663;28;20954;-74
2021/03/02 04:10:52;;;;;;;9.07;6.90;;;5.60;72.70;;;;;;5096961;28;20436;-74
2021/03/02 04:13:18;;;;;;;9.73;7.77;;;5.60;72.90;;;;;;5096838;28;20435;-74
2021/03/02 04:15:45;;;;;;;8.20;7.10;;;5.60;73.30;;;;;;5096720;28;20466;-74
2021/03/02 04:18:13;;;;;;;8.97;7.47;;;5.60;73.50;;;;;;5096710;28;20450;-74
2021/03/02 04:20:40;;;;;;;9.30;8.40;;;5.60;73.60;;;;;;5096628;28;20442;-74
2021/03/02 04:23:06;;;;;;;8.60;7.60;;;5.60;73.60;;;;;;5096619;28;20452;-74
2021/03/02 04:25:33;;;;;;;7.73;6.90;;;5.50;73.50;;;;;;5096543;28;20467;-74
2021/03/02 04:28:02;;;;;;;8.37;7.43;;;5.50;73.50;;;;;;5096536;28;20488;-74
2021/03/02 04:30:29;;;;;;;11.57;7.47;;;5.50;73.60;;;;;;5096468;28;20439;-74
2021/03/02 04:32:55;;;;;;;9.83;7.00;;;5.50;73.70;;;;;;5096438;28;20497;-74
2021/03/02 04:35:22;;;;;;;10.43;8.30;;;5.50;74.00;;;;;;5096337;28;20471;-74
2021/03/02 04:37:48;;;;;;;11.20;7.80;;;5.50;74.10;;;;;;5096352;28;20447;-74
2021/03/02 04:40:15;;;;;;;8.43;6.90;;;5.50;74.30;;;;;;5096340;28;20448;-74
2021/03/02 04:42:44;;;;;;;12.07;8.50;;;5.50;74.60;;;;;;5096227;28;20466;-74
2021/03/02 04:45:11;;;;;;;9.90;8.20;;;5.40;74.80;;;;;;5095875;28;20470;-74
2021/03/02 04:47:39;;;;;;;8.40;7.50;;;5.50;75.20;;;;;;5095814;28;20492;-74
2021/03/02 04:50:07;;;;;;;10.97;8.53;;;5.50;75.40;;;;;;5096098;28;20444;-74
2021/03/02 04:52:33;;;;;;;11.90;8.53;;;5.50;75.60;;;;;;5095762;28;20559;-74
2021/03/02 04:54:59;;;;;;;11.30;8.30;;;5.50;75.70;;;;;;5096879;28;20460;-74
2021/03/02 04:57:25;;;;;;;10.43;8.70;;;5.50;75.80;;;;;;5097554;28;20444;-74
2021/03/02 04:59:52;;;;;;;10.20;8.60;;;5.50;75.90;;;;;;5096718;28;20452;-74
2021/03/02 05:02:18;;;;;;;9.67;7.60;;;5.50;75.70;;;;;;5096134;28;20478;-74
2021/03/02 05:04:45;;;;;;;12.27;7.43;;;5.50;75.40;;;;;;5095725;28;20468;-74
2021/03/02 05:07:11;;;;;;;21.10;9.20;;;5.50;75.30;;;;;;5096000;28;20494;-74
2021/03/02 05:09:37;;;;;;;11.47;9.20;;;5.50;75.20;;;;;;5095740;28;20447;-74
2021/03/02 05:12:04;;;;;;;11.87;10.37;;;5.40;75.20;;;;;;5095412;28;20443;-74
2021/03/02 05:14:30;;;;;;;10.70;8.77;;;5.40;75.40;;;;;;5095713;28;20451;-74
2021/03/02 05:16:57;;;;;;;12.30;10.20;;;5.40;75.70;;;;;;5095687;28;20424;-74
2021/03/02 05:19:24;;;;;;;13.43;9.50;;;5.40;75.90;;;;;;5095355;28;20451;-74
2021/03/02 05:21:50;;;;;;;11.37;9.53;;;5.50;76.30;;;;;;5095806;28;20476;-74
2021/03/02 05:24:16;;;;;;;13.27;10.40;;;5.50;76.60;;;;;;5095692;28;20443;-74
2021/03/02 05:26:42;;;;;;;14.20;9.73;;;5.50;76.80;;;;;;5095403;28;20467;-74
2021/03/02 05:29:08;;;;;;;9.87;8.10;;;5.50;77.10;;;;;;5095288;28;20443;-74
2021/03/02 05:31:35;;;;;;;11.93;9.93;;;5.50;77.30;;;;;;5095391;28;20457;-74
2021/03/02 05:34:02;;;;;;;12.83;10.70;;;5.50;77.40;;;;;;5095280;28;20870;-74
2021/03/02 05:36:28;;;;;;;13.73;9.17;;;5.40;77.40;;;;;;5095140;28;20472;-74
2021/03/02 05:38:55;;;;;;;14.43;10.93;;;5.50;77.70;;;;;;5095229;28;20440;-74
2021/03/02 05:41:22;;;;;;;11.70;9.77;;;5.40;78.00;;;;;;5095114;28;20483;-74
2021/03/02 05:43:48;;;;;;;12.53;10.27;;;5.50;78.20;;;;;;5095192;28;20451;-74
2021/03/02 05:46:15;;;;;;;13.03;9.40;;;5.50;78.50;;;;;;5095024;28;20463;-74
2021/03/02 05:48:42;;;;;;;14.23;9.30;;;5.50;78.60;;;;;;5095104;28;20566;-74
2021/03/02 05:51:10;;;;;;;13.70;9.60;;;5.50;78.90;;;;;;5094901;28;20941;-74
2021/03/02 05:53:39;;;;;;;11.03;8.67;;;5.50;79.20;;;;;;5094982;28;20447;-74
2021/03/02 05:56:06;;;;;;;10.80;8.97;;;5.50;79.40;;;;;;5095014;28;20473;-75
2021/03/02 05:58:33;;;;;;;11.40;7.73;;;5.50;79.30;;;;;;5093989;28;20448;-75
2021/03/02 06:00:59;;;;;;;13.47;8.70;;;5.50;79.00;;;;;;5094475;28;20997;-75
2021/03/02 06:03:25;;;;;;;10.43;8.00;;;5.50;78.20;;;;;;5094690;28;20477;-74
2021/03/02 06:05:52;;;;;;;12.50;8.10;;;5.50;77.70;;;;;;5094486;28;20509;-75
2021/03/02 06:08:19;;;;;;;12.10;8.73;;;5.50;77.30;;;;;;5094603;28;20455;-75
2021/03/02 06:10:45;;;;;;;14.77;9.23;;;5.40;77.20;;;;;;5094629;28;20435;-74
2021/03/02 06:13:11;;;;;;;12.27;8.27;;;5.50;77.40;;;;;;5094541;28;20443;-75
2021/03/02 06:15:54;;;;;;;11.80;9.20;;;5.40;77.60;;;;;;5094393;28;20466;-75
2021/03/02 06:18:20;;;;;;;13.40;8.90;;;5.50;77.80;;;;;;5095054;28;20505;-75
2021/03/02 06:20:47;;;;;;;11.87;8.87;;;5.50;77.80;;;;;;5094310;28;20452;-75
2021/03/02 06:23:23;;;;;;;9.67;7.83;;;5.50;77.90;;;;;;5094302;28;20439;-75
2021/03/02 06:25:49;;;;;;;11.80;8.47;;;5.50;78.00;;;;;;5093916;28;20988;-75
2021/03/02 06:28:37;;;;;;;10.63;7.80;;;5.50;78.20;;;;;;5094156;28;20443;-75
2021/03/02 06:31:04;;;;;;;10.40;7.40;;;5.50;78.70;;;;;;5094113;28;20424;-75
2021/03/02 06:33:30;;;;;;;8.33;7.03;;;5.40;78.30;;;;;;5094153;28;20437;-75
2021/03/02 06:35:56;;;;;;;9.23;7.23;;;5.40;77.80;;;;;;5094012;28;20814;-76
2021/03/02 06:38:34;;;;;;;9.37;8.03;;;5.40;77.60;;;;;;5093930;28;20826;-75
2021/03/02 06:41:01;;;;;;;13.97;8.00;;;5.30;77.60;;;;;;5094112;28;20460;-75
2021/03/02 06:43:33;;;;;;;10.57;8.17;;;5.30;77.70;;;;;;5093872;28;20444;-75
2021/03/02 06:46:00;;;;;;;9.43;7.00;;;5.30;77.90;;;;;;5093898;28;20464;-75
2021/03/02 06:48:26;;;;;;;9.40;7.20;;;5.40;78.40;;;;;;5093995;28;20419;-75
2021/03/02 06:50:53;;;;;;;8.10;6.40;;;5.40;78.70;;;;;;5093912;28;20443;-75
2021/03/02 06:53:20;;;;;;;8.80;6.07;;;5.40;78.90;;;;;;5093850;28;20443;-75
2021/03/02 06:55:47;;;;;;;8.77;7.30;;;5.50;79.70;;;;;;5093791;28;20459;-74
2021/03/02 06:58:16;;;;;;;10.00;6.37;;;5.50;80.00;;;;;;5093764;28;20491;-74
2021/03/02 07:00:46;;;;;;;9.07;6.40;;;5.60;80.80;;;;;;5093708;28;20432;-74
2021/03/02 07:03:27;;;;;;;9.77;7.27;;;5.60;81.90;;;;;;5093790;28;20803;-74
2021/03/02 07:05:54;;;;;;;9.67;7.07;;;5.70;81.30;;;;;;5093498;28;20476;-74
2021/03/02 07:08:20;;;;;;;8.87;6.90;;;5.80;81.40;;;;;;5093141;28;20876;-74
2021/03/02 07:10:50;;;;;;;9.30;7.10;;;5.80;81.50;;;;;;5093540;28;20450;-74
2021/03/02 07:13:17;;;;;;;9.00;7.10;;;5.90;81.50;;;;;;5093813;28;20448;-74
2021/03/02 07:15:45;;;;;;;8.67;7.03;;;5.90;81.40;;;;;;5093448;28;20521;-74
2021/03/02 07:18:14;;;;;;;9.90;6.93;;;6.00;81.50;;;;;;5093286;28;20938;-73
2021/03/02 07:20:49;;;;;;;11.77;6.80;;;6.10;81.40;;;;;;5093557;28;20443;-73
2021/03/02 07:23:17;;;;;;;10.40;7.37;;;6.10;81.20;;;;;;5093916;28;20439;-73
2021/03/02 07:25:45;;;;;;;11.00;7.03;;;6.20;81.10;;;;;;5093511;28;20467;-73
2021/03/02 07:28:15;;;;;;;9.47;7.10;;;6.30;81.30;;;;;;5093616;28;20447;-74
2021/03/02 07:30:44;;;;;;;12.23;7.93;;;6.30;81.30;;;;;;5093562;28;20470;-73
2021/03/02 07:33:11;;;;;;;9.43;7.47;;;6.40;81.20;;;;;;5093661;28;20451;-74
2021/03/02 07:35:38;;;;;;;10.27;7.80;;;6.50;81.50;;;;;;5093130;28;20973;-74
2021/03/02 07:38:19;;;;;;;11.33;7.67;;;6.60;81.70;;;;;;5093526;28;20428;-74
2021/03/02 07:40:47;;;;;;;11.97;8.30;;;6.60;81.50;;;;;;5093396;28;20436;-74
2021/03/02 07:43:28;;;;;;;9.87;7.30;;;6.70;81.20;;;;;;5093087;28;20435;-73
2021/03/02 07:45:55;;;;;;;10.17;7.97;;;6.80;81.00;;;;;;5093320;28;20896;-74
2021/03/02 07:48:29;;;;;;;10.53;7.57;;;6.90;80.90;;;;;;5093457;28;20443;-76
2021/03/02 07:51:19;;;;;;;12.07;8.30;;;7.00;80.70;;;;;;5093472;28;20451;-75
2021/03/02 07:53:46;;;;;;;13.03;9.03;;;7.10;80.70;;;;;;5093688;28;20471;-75
2021/03/02 07:56:26;;;;;;;10.90;8.50;;;7.10;80.60;;;;;;5093398;28;20468;-75
2021/03/02 07:59:18;;;;;;;12.57;7.63;;;7.20;80.50;;;;;;5093563;28;20439;-75
2021/03/02 08:02:12;;;;;;;9.50;8.27;;;7.40;80.00;;;;;;5093084;28;20459;-75
2021/03/02 08:04:39;;;;;;;11.30;8.23;;;7.40;79.80;;;;;;5092968;28;20443;-75
2021/03/02 08:07:22;;;;;;;13.03;7.97;;;7.50;79.80;;;;;;5093189;28;20436;-75
2021/03/02 08:09:49;;;;;;;18.73;9.73;;;7.60;79.30;;;;;;5093236;28;20424;-75
2021/03/02 08:12:40;;;;;;;8.97;8.07;;;7.60;79.00;;;;;;5093255;28;20796;-75
2021/03/02 08:15:38;;;;;;;10.67;8.53;;;7.70;79.10;;;;;;5077758;28;20483;-75
2021/03/02 08:18:26;;;;;;;11.67;7.80;;;7.80;79.10;;;;;;5093244;28;20432;-75
2021/03/02 08:21:11;;;;;;;12.93;8.10;;;7.90;78.50;;;;;;5093689;28;20446;-75
2021/03/02 08:23:54;;;;;;;11.20;8.93;;;7.90;78.30;;;;;;5096760;28;20447;-75
2021/03/02 08:26:28;;;;;;;8.37;7.50;;;8.00;78.40;;;;;;5096649;28;20467;-75
2021/03/02 08:29:15;;;;;;;9.53;8.20;;;8.10;78.30;;;;;;5096489;28;20965;-76
2021/03/02 08:31:44;;;;;;;13.97;8.13;;;8.20;77.70;;;;;;5096655;28;20506;-75
2021/03/02 08:34:12;;;;;;;10.00;7.63;;;8.20;77.50;;;;;;5096984;28;20412;-76
2021/03/02 08:36:40;;;;;;;10.70;8.53;;;8.30;77.20;;;;;;5096418;28;20524;-76
2021/03/02 08:39:11;;;;;;;10.00;8.63;;;8.30;77.00;;;;;;5096706;28;20435;-76
2021/03/02 08:41:39;;;;;;;9.67;8.00;;;8.40;77.00;;;;;;5096213;28;20538;-76
2021/03/02 08:44:06;;;;;;;11.07;8.47;;;8.40;76.90;;;;;;5096286;28;20458;-75
2021/03/02 08:46:34;;;;;;;9.37;7.70;;;8.50;76.50;;;;;;5096241;28;20489;-75
2021/03/02 08:49:09;;;;;;;10.57;8.40;;;8.60;76.30;;;;;;5096116;28;20793;-75
2021/03/02 08:51:36;;;;;;;11.30;9.10;;;8.70;76.30;;;;;;5096171;28;20420;-75
2021/03/02 08:54:02;;;;;;;12.53;9.10;;;8.80;76.10;;;;;;5096131;28;20497;-74
2021/03/02 08:56:29;;;;;;;11.30;7.80;;;8.80;76.00;;;;;;5095632;28;20824;-76
2021/03/02 08:59:04;;;;;;;12.33;8.30;;;8.80;75.50;;;;;;5095957;28;20448;-75
2021/03/02 09:01:34;;;;;;;12.17;8.33;;;8.90;75.70;;;;;;5095949;28;20575;-75
2021/03/02 09:04:10;;;;;;;10.07;7.80;;;9.00;75.60;;;;;;5095943;28;20534;-75
2021/03/02 09:06:37;;;;;;;11.40;7.70;;;9.00;74.90;;;;;;5095553;28;20527;-75
2021/03/02 09:09:05;;;;;;;10.97;8.43;;;9.10;75.00;;;;;;5095821;28;20443;-75
2021/03/02 09:11:34;;;;;;;12.33;8.93;;;9.20;74.40;;;;;;5095815;28;20435;-75
2021/03/02 09:14:03;;;;;;;10.80;9.33;;;9.20;74.40;;;;;;5095481;28;20914;-75
2021/03/02 09:16:37;;;;;;;12.93;9.20;;;9.30;74.20;;;;;;5095627;28;20831;-75
2021/03/02 09:19:17;;;;;;;13.33;9.20;;;9.40;74.10;;;;;;5095669;28;20484;-75
2021/03/02 09:21:45;;;;;;;12.47;8.13;;;9.50;73.80;;;;;;5095588;28;20969;-75
2021/03/02 09:24:17;;;;;;;9.97;7.97;;;9.60;73.10;;;;;;5095203;28;20905;-75
2021/03/02 09:26:55;;;;;;;10.50;8.43;;;9.70;73.00;;;;;;5095378;28;20470;-75
2021/03/02 09:29:22;;;;;;;12.00;8.67;;;9.80;72.80;;;;;;5095758;28;20428;-75
2021/03/02 09:31:50;;;;;;;10.70;8.80;;;9.90;72.30;;;;;;5095220;28;20433;-75
2021/03/02 09:34:17;;;;;;;12.40;9.00;;;10.00;70.60;;;;;;5095376;28;20467;-75
2021/03/02 09:36:44;;;;;;;12.17;9.47;;;10.00;70.50;;;;;;5095349;28;20493;-75
2021/03/02 09:39:23;;;;;;;11.87;9.60;;;10.10;70.40;;;;;;5094954;28;20963;-75
2021/03/02 09:41:51;;;;;;;11.90;9.27;;;10.20;69.90;;;;;;5095258;28;20516;-74
2021/03/02 09:44:26;;;;;;;13.90;8.53;;;10.30;69.90;;;;;;5095292;28;20428;-74
2021/03/02 09:46:54;;;;;;;11.60;9.13;;;10.40;70.00;;;;;;5095108;28;20423;-74
2021/03/02 09:49:45;;;;;;;14.40;9.13;;;10.60;69.20;;;;;;5094805;28;20825;-74
2021/03/02 09:52:32;;;;;;;14.73;9.50;;;10.70;68.90;;;;;;5094743;28;20967;-74
2021/03/02 09:55:17;;;;;;;12.30;9.47;;;10.80;67.90;;;;;;5095125;28;20467;-74
2021/03/02 09:57:51;;;;;;;16.03;8.90;;;11.00;67.50;;;;;;5094904;28;20428;-74
2021/03/02 10:00:18;;;;;;;15.00;9.70;;;11.10;66.90;;;;;;5094817;28;20427;-74
2021/03/02 10:02:49;;;;;;;12.80;10.10;;;11.20;67.20;;;;;;5094671;28;20486;-76
2021/03/02 10:05:29;;;;;;;11.17;8.80;;;11.40;67.00;;;;;;5094541;28;20483;-76
2021/03/02 10:07:55;;;;;;;9.97;8.87;;;11.60;66.30;;;;;;5094706;28;20853;-75
2021/03/02 10:10:34;;;;;;;12.77;9.17;;;11.80;65.40;;;;;;5094748;28;20427;-75
2021/03/02 10:13:01;;;;;;;13.40;9.13;;;12.00;65.10;;;;;;5094726;28;20423;-75
2021/03/02 10:15:27;;;;;;;12.10;9.40;;;12.30;63.90;;;;;;5094622;28;20474;-75
2021/03/02 10:17:53;;;;;;;13.80;9.03;;;12.50;63.50;;;;;;5094560;28;20427;-75
2021/03/02 10:20:20;;;;;;;11.40;8.90;;;12.80;62.50;;;;;;5094157;28;20443;-74
2021/03/02 10:22:59;;;;;;;11.70;9.30;;;13.00;61.00;;;;;;5094311;28;20460;-74
2021/03/02 10:25:38;;;;;;;11.00;9.57;;;13.40;60.00;;;;;;5094282;28;20494;-75
2021/03/02 10:28:05;;;;;;;10.50;9.20;;;13.90;58.50;;;;;;5094425;28;20423;-74
2021/03/02 10:30:31;;;;;;;12.03;9.30;;;14.40;57.40;;;;;;5094258;28;20451;-74
2021/03/02 10:32:57;;;;;;;10.73;8.90;;;14.90;56.30;;;;;;5093860;28;20442;-74
2021/03/02 10:35:24;;;;;;;11.53;9.93;;;15.40;54.70;;;;;;5094104;28;20494;-73
2021/03/02 10:37:50;;;;;;;12.93;9.70;;;15.90;53.10;;;;;;5094251;28;20424;-73
2021/03/02 10:40:17;;;;;;;11.03;9.00;;;16.40;51.60;;;;;;5094079;28;20424;-73
2021/03/02 10:42:43;;;;;;;11.90;10.70;;;16.90;50.20;;;;;;5093956;28;20487;-73
2021/03/02 10:45:10;;;;;;;14.13;9.80;;;17.40;49.60;;;;;;5093427;28;20451;-73
2021/03/02 10:47:37;;;;;;;11.40;9.53;;;17.90;48.50;;;;;;5093726;28;20443;-73
2021/03/02 10:50:04;;;;;;;12.00;10.13;;;18.50;47.00;;;;;;5093897;28;20439;-73
2021/03/02 10:52:31;;;;;;;12.47;9.70;;;18.90;44.80;;;;;;5093824;28;20493;-73
2021/03/02 10:54:57;;;;;;;14.23;10.77;;;19.40;44.40;;;;;;5093467;28;20833;-73
2021/03/02 10:57:24;;;;;;;13.80;10.20;;;19.90;41.90;;;;;;5093822;28;20444;-73
2021/03/02 10:59:50;;;;;;;14.07;10.53;;;20.40;41.40;;;;;;5093842;28;20497;-73
2021/03/02 11:02:17;;;;;;;10.90;9.70;;;20.90;40.40;;;;;;5093576;28;20575;-73
2021/03/02 11:04:43;;;;;;;12.73;10.30;;;21.40;39.40;;;;;;5093397;28;20428;-73
2021/03/02 11:07:09;;;;;;;11.33;10.23;;;21.90;38.40;;;;;;5093674;28;20435;-73
2021/03/02 11:09:36;;;;;;;13.23;10.03;;;22.40;36.60;;;;;;5093613;28;20439;-73
2021/03/02 11:12:03;;;;;;;12.50;10.27;;;22.70;35.80;;;;;;5093656;28;20819;-73
2021/03/02 11:14:29;;;;;;;10.20;9.30;;;23.10;35.20;;;;;;5093221;28;20454;-73
2021/03/02 11:16:55;;;;;;;11.77;10.33;;;23.50;34.50;;;;;;5093503;28;20452;-74
2021/03/02 11:19:21;;;;;;;13.47;10.23;;;23.90;33.30;;;;;;5094413;28;20501;-74
2021/03/02 11:21:48;;;;;;;12.47;9.80;;;24.10;32.30;;;;;;5093103;28;20949;-74
2021/03/02 11:24:14;;;;;;;14.00;9.33;;;24.40;32.40;;;;;;5093536;28;20444;-74
2021/03/02 11:26:41;;;;;;;9.83;8.83;;;24.70;32.10;;;;;;5093411;28;20468;-74
2021/03/02 11:29:07;;;;;;;10.47;9.40;;;25.10;31.50;;;;;;5094010;28;20454;-74
2021/03/02 11:31:33;;;;;;;11.00;9.83;;;25.40;31.10;;;;;;5093434;28;20493;-74
2021/03/02 11:33:59;;;;;;;10.10;9.20;;;25.80;30.50;;;;;;5093424;28;20440;-74
2021/03/02 11:36:25;;;;;;;10.40;9.40;;;26.20;29.90;;;;;;5093277;28;20536;-74
2021/03/02 11:38:52;;;;;;;11.10;10.07;;;26.50;29.20;;;;;;5093269;28;20444;-74
2021/03/02 11:41:18;;;;;;;12.17;10.37;;;26.80;29.10;;;;;;5093224;28;20806;-74
2021/03/02 11:43:45;;;;;;;12.63;10.63;;;27.20;29.00;;;;;;5094554;28;20428;-74
2021/03/02 11:46:11;;;;;;;11.43;10.30;;;26.90;27.50;;;;;;5093291;28;20467;-74
2021/03/02 11:48:37;;;;;;;12.00;10.23;;;27.10;28.20;;;;;;5093026;28;20424;-74
2021/03/02 11:51:04;;;;;;;12.07;10.97;;;27.30;27.50;;;;;;5092913;28;20530;-74
2021/03/02 11:53:30;;;;;;;10.90;9.90;;;27.30;27.10;;;;;;5093326;28;20424;-74
2021/03/02 11:55:56;;;;;;;21.10;10.03;;;27.40;27.90;;;;;;5094021;28;20463;-74
2021/03/02 11:58:23;;;;;;;11.43;10.33;;;27.90;27.60;;;;;;5097268;28;20451;-74
2021/03/02 12:00:50;;;;;;;14.53;11.10;;;28.30;27.00;;;;;;5097100;28;20538;-74
2021/03/02 12:03:16;;;;;;;10.83;9.93;;;28.80;26.70;;;;;;5096975;28;20471;-74
2021/03/02 12:05:42;;;;;;;11.20;10.10;;;29.20;26.10;;;;;;5096773;28;20989;-74
2021/03/02 12:08:09;;;;;;;13.13;11.83;;;29.60;25.40;;;;;;5096949;28;20454;-74
2021/03/02 12:10:35;;;;;;;11.87;10.77;;;29.90;24.00;;;;;;5097162;28;20424;-74
2021/03/02 12:13:01;;;;;;;16.80;12.00;;;29.80;24.50;;;;;;5096929;28;20440;-74
2021/03/02 12:15:27;;;;;;;12.90;11.53;;;29.90;24.50;;;;;;5096760;28;20467;-74
2021/03/02 12:17:54;;;;;;;12.60;11.33;;;30.00;23.70;;;;;;5096760;28;20444;-74
2021/03/02 12:20:21;;;;;;;11.33;10.27;;;30.10;24.10;;;;;;5096843;28;20446;-74
2021/03/02 12:22:47;;;;;;;13.10;11.80;;;30.30;24.50;;;;;;5096386;28;20460;-74
2021/03/02 12:25:14;;;;;;;12.17;10.93;;;30.70;24.30;;;;;;5096558;28;20520;-74
2021/03/02 12:27:40;;;;;;;13.00;11.63;;;31.20;23.70;;;;;;5096665;28;20451;-74
2021/03/02 12:30:07;;;;;;;12.30;11.10;;;31.60;23.50;;;;;;5097374;28;20479;-74
2021/03/02 12:32:35;;;;;;;12.30;11.20;;;32.00;23.10;;;;;;5096631;28;20432;-75
2021/03/02 12:35:02;;;;;;;13.53;12.23;;;32.30;22.40;;;;;;5096349;28;20467;-74
2021/03/02 12:37:28;;;;;;;14.43;13.13;;;32.60;21.50;;;;;;5096106;28;20454;-73
2021/03/02 12:39:55;;;;;;;14.70;13.30;;;32.40;20.90;;;;;;5096418;28;20439;-73
2021/03/02 12:42:21;;;;;;;16.53;12.60;;;32.40;22.00;;;;;;5096665;28;20478;-74
2021/03/02 12:44:47;;;;;;;14.27;11.47;;;32.60;21.50;;;;;;5097022;28;20984;-74
2021/03/02 12:47:13;;;;;;;13.70;12.33;;;32.90;21.40;;;;;;5096283;28;20945;-73
2021/03/02 12:49:40;;;;;;;13.00;11.83;;;33.30;21.50;;;;;;5095921;28;20443;-74
2021/03/02 12:52:08;;;;;;;14.13;12.40;;;33.60;21.00;;;;;;5096426;28;20426;-74